Time;durP1;ratioP1;P1;durP2;ratioP2;P2;SDS_P1;SDS_P2;PMS_P1;PMS_P2;Temp;Humidity;BMP_temperature;BMP_pressure;BME280_temperature;BME280_humidity;BME280_pressure;Samples;Min_cycle;Max_cycle;Signal;HPM_P1;HPM_P2
2022/10/12 00:01:16;;;;;;;5.93;5.33;;;7.30;99.90;;;;;;5029493;28;20267;-36
2022/10/12 00:03:42;;;;;;;8.60;5.70;;;7.30;99.90;;;;;;5028550;28;20220;-36
2022/10/12 00:06:11;;;;;;;7.10;5.73;;;7.30;99.90;;;;;;5028036;28;20241;-36
2022/10/12 00:08:38;;;;;;;6.27;5.43;;;7.20;99.90;;;;;;5029158;28;21305;-36
2022/10/12 00:11:06;;;;;;;6.13;5.53;;;7.20;99.90;;;;;;5029330;28;20436;-36
2022/10/12 00:13:31;;;;;;;6.70;5.20;;;7.20;99.90;;;;;;5028365;28;20414;-36
2022/10/12 00:16:03;;;;;;;8.33;4.83;;;7.00;99.90;;;;;;5028780;28;20570;-36
2022/10/12 00:18:29;;;;;;;9.13;5.73;;;7.10;99.90;;;;;;5028942;28;20425;-35
2022/10/12 00:21:11;;;;;;;5.53;5.03;;;6.90;99.90;;;;;;5028909;28;20726;-36
2022/10/12 00:23:38;;;;;;;7.20;5.43;;;6.60;99.90;;;;;;5028682;28;20444;-36
2022/10/12 00:26:07;;;;;;;7.40;5.17;;;7.10;99.90;;;;;;5028171;28;21044;-36
2022/10/12 00:28:33;;;;;;;7.37;5.27;;;6.60;99.90;;;;;;5028631;28;21011;-35
2022/10/12 00:30:59;;;;;;;8.10;4.90;;;7.00;99.90;;;;;;5028676;28;20936;-35
2022/10/12 00:33:27;;;;;;;6.27;4.93;;;6.90;99.90;;;;;;5028295;28;20559;-36
2022/10/12 00:35:53;;;;;;;7.93;5.43;;;6.90;99.90;;;;;;5028465;28;20440;-35
2022/10/12 00:38:20;;;;;;;8.20;5.63;;;7.10;99.90;;;;;;5028827;28;20521;-36
2022/10/12 00:40:46;;;;;;;7.20;5.47;;;6.90;99.90;;;;;;5028413;28;20444;-35
2022/10/12 00:43:29;;;;;;;7.77;5.57;;;7.00;99.90;;;;;;5027923;28;20488;-36
2022/10/12 00:45:56;;;;;;;8.03;5.10;;;6.90;99.90;;;;;;5028512;28;20436;-35
2022/10/12 00:48:22;;;;;;;7.70;6.13;;;6.90;99.90;;;;;;5028855;28;20487;-35
2022/10/12 00:50:48;;;;;;;8.23;5.37;;;6.90;99.90;;;;;;5028549;28;20784;-36
2022/10/12 00:53:19;;;;;;;7.83;5.20;;;6.90;99.90;;;;;;5026657;28;20699;-37
2022/10/12 00:55:49;;;;;;;7.50;5.43;;;6.70;99.90;;;;;;5025404;28;20205;-36
2022/10/12 00:58:15;;;;;;;8.33;5.10;;;6.80;99.90;;;;;;5028669;28;20455;-36
2022/10/12 01:00:41;;;;;;;6.87;5.20;;;6.70;99.90;;;;;;5028306;28;20429;-35
2022/10/12 01:03:09;;;;;;;12.00;5.97;;;6.70;99.90;;;;;;5027905;28;20488;-35
2022/10/12 01:05:38;;;;;;;8.00;5.67;;;6.70;99.90;;;;;;5028225;28;20570;-36
2022/10/12 01:08:04;;;;;;;7.20;5.33;;;6.90;99.90;;;;;;5027925;28;20436;-35
2022/10/12 01:10:29;;;;;;;8.23;5.87;;;7.10;99.90;;;;;;5027040;28;20952;-35
2022/10/12 01:12:55;;;;;;;7.03;5.70;;;6.90;99.90;;;;;;5027409;28;20289;-36
2022/10/12 01:15:23;;;;;;;8.23;5.43;;;6.80;99.90;;;;;;5027125;28;20201;-36
2022/10/12 01:18:00;;;;;;;5.90;5.00;;;6.80;99.90;;;;;;5028183;28;20202;-35
2022/10/12 01:20:48;;;;;;;6.93;6.10;;;6.50;99.90;;;;;;5028757;28;20974;-36
2022/10/12 01:23:17;;;;;;;10.07;5.47;;;6.70;99.90;;;;;;5027261;28;20529;-35
2022/10/12 01:26:10;;;;;;;6.73;5.27;;;6.70;99.90;;;;;;5028262;28;20431;-35
2022/10/12 01:28:39;;;;;;;6.23;4.60;;;6.80;99.90;;;;;;5028156;28;20508;-36
2022/10/12 01:31:32;;;;;;;5.60;5.10;;;6.60;99.90;;;;;;5028011;28;20428;-36
2022/10/12 01:34:20;;;;;;;8.53;5.37;;;6.50;99.90;;;;;;5027503;28;20424;-36
2022/10/12 01:36:55;;;;;;;6.13;4.77;;;6.60;99.90;;;;;;5030004;28;20619;-35
2022/10/12 01:39:29;;;;;;;6.03;5.33;;;6.50;99.90;;;;;;5031570;28;20428;-36
2022/10/12 01:42:03;;;;;;;6.00;5.10;;;6.60;99.90;;;;;;5032057;28;20811;-35
2022/10/12 01:44:31;;;;;;;5.40;4.63;;;6.40;99.90;;;;;;5030088;28;20792;-36
2022/10/12 01:46:57;;;;;;;6.60;4.63;;;6.50;99.90;;;;;;5032083;28;20463;-36
2022/10/12 01:49:26;;;;;;;8.70;5.33;;;6.40;99.90;;;;;;5031679;28;20787;-35
2022/10/12 01:52:15;;;;;;;5.33;4.40;;;6.60;99.90;;;;;;5031561;28;20425;-35
2022/10/12 01:54:47;;;;;;;6.00;4.33;;;6.60;99.90;;;;;;5029700;28;20425;-36
2022/10/12 01:57:15;;;;;;;6.83;5.07;;;6.50;99.90;;;;;;5031803;28;20482;-36
2022/10/12 01:59:58;;;;;;;5.60;4.30;;;6.40;99.90;;;;;;5031570;28;20424;-35
2022/10/12 02:02:39;;;;;;;4.37;3.97;;;6.30;99.90;;;;;;5031299;28;20464;-35
2022/10/12 02:05:15;;;;;;;6.93;4.50;;;6.50;99.90;;;;;;5031056;28;20986;-36
2022/10/12 02:07:58;;;;;;;5.33;4.07;;;6.40;99.90;;;;;;5031675;28;20904;-36
2022/10/12 02:10:28;;;;;;;5.40;3.70;;;6.60;99.90;;;;;;5031244;28;20459;-36
2022/10/12 02:12:57;;;;;;;5.27;4.23;;;6.70;99.90;;;;;;5030802;28;20796;-35
2022/10/12 02:15:25;;;;;;;8.30;4.63;;;6.50;99.90;;;;;;5031358;28;20487;-35
2022/10/12 02:17:52;;;;;;;7.40;4.00;;;6.70;99.90;;;;;;5031383;28;20771;-35
2022/10/12 02:20:21;;;;;;;9.93;4.40;;;6.60;99.90;;;;;;5031841;28;20516;-35
2022/10/12 02:22:49;;;;;;;5.70;4.00;;;6.40;99.90;;;;;;5031106;28;20472;-36
2022/10/12 02:25:19;;;;;;;4.77;4.30;;;6.60;99.90;;;;;;5031300;28;20507;-35
2022/10/12 02:27:50;;;;;;;5.50;4.50;;;6.40;99.90;;;;;;5030081;28;20443;-36
2022/10/12 02:30:17;;;;;;;4.27;3.80;;;6.40;99.90;;;;;;5031178;28;20480;-36
2022/10/12 02:32:53;;;;;;;4.50;4.10;;;6.30;99.90;;;;;;5030218;28;20432;-36
2022/10/12 02:35:24;;;;;;;4.30;3.83;;;6.30;99.90;;;;;;5031051;28;20425;-36
2022/10/12 02:38:04;;;;;;;5.20;4.10;;;6.30;99.90;;;;;;5030757;28;20433;-36
2022/10/12 02:40:49;;;;;;;7.43;4.70;;;6.20;99.90;;;;;;5031002;28;20424;-35
2022/10/12 02:43:28;;;;;;;6.53;4.50;;;6.40;99.90;;;;;;5030209;28;20468;-36
2022/10/12 02:45:55;;;;;;;4.37;3.67;;;6.30;99.90;;;;;;5030479;28;20464;-35
2022/10/12 02:48:23;;;;;;;7.50;4.50;;;6.40;99.90;;;;;;5029942;28;20504;-35
2022/10/12 02:50:52;;;;;;;6.20;4.37;;;6.40;99.90;;;;;;5030596;28;20763;-35
2022/10/12 02:53:19;;;;;;;6.47;5.33;;;6.60;99.90;;;;;;5030031;28;20437;-36
2022/10/12 02:55:51;;;;;;;9.60;5.17;;;6.80;99.90;;;;;;5029101;28;20496;-36
2022/10/12 02:58:17;;;;;;;5.13;4.23;;;6.70;99.90;;;;;;5030286;28;20429;-35
2022/10/12 03:00:43;;;;;;;4.30;3.90;;;6.70;99.90;;;;;;5030726;28;20469;-36
2022/10/12 03:03:08;;;;;;;6.63;4.23;;;6.70;99.90;;;;;;5029615;28;20500;-35
2022/10/12 03:05:34;;;;;;;4.90;3.80;;;6.70;99.90;;;;;;5030402;28;20264;-35
2022/10/12 03:07:59;;;;;;;5.90;4.20;;;6.60;99.90;;;;;;5030383;28;20191;-36
2022/10/12 03:10:25;;;;;;;5.83;4.20;;;6.40;99.90;;;;;;5045727;28;20604;-36
2022/10/12 03:12:51;;;;;;;7.43;4.33;;;6.50;99.90;;;;;;5029815;28;20189;-35
2022/10/12 03:15:16;;;;;;;8.97;5.53;;;6.30;99.90;;;;;;5030239;28;20558;-35
2022/10/12 03:17:42;;;;;;;10.93;4.50;;;6.20;99.90;;;;;;5029239;28;20205;-35
2022/10/12 03:20:08;;;;;;;9.03;4.20;;;6.20;99.90;;;;;;5030966;28;20198;-35
2022/10/12 03:22:34;;;;;;;8.27;5.20;;;6.40;99.90;;;;;;5029921;28;20218;-36
2022/10/12 03:25:00;;;;;;;6.00;3.80;;;6.30;99.90;;;;;;5029668;28;20853;-35
2022/10/12 03:27:26;;;;;;;7.87;4.60;;;6.20;99.90;;;;;;5028612;28;20464;-35
2022/10/12 03:29:51;;;;;;;5.83;4.30;;;6.20;99.90;;;;;;5030212;28;20421;-36
2022/10/12 03:32:17;;;;;;;6.90;4.60;;;6.20;99.90;;;;;;5030182;28;20795;-35
2022/10/12 03:34:43;;;;;;;5.87;4.77;;;6.40;99.90;;;;;;5029549;28;20194;-36
2022/10/12 03:37:09;;;;;;;5.63;4.23;;;6.50;99.90;;;;;;5028807;28;20429;-35
2022/10/12 03:39:35;;;;;;;7.03;4.57;;;6.50;99.90;;;;;;5028393;28;20197;-35
2022/10/12 03:42:00;;;;;;;6.97;4.30;;;6.60;99.90;;;;;;5030063;28;20218;-36
2022/10/12 03:44:26;;;;;;;4.77;4.27;;;6.80;99.90;;;;;;5029097;28;20202;-36
2022/10/12 03:46:52;;;;;;;7.53;4.27;;;6.60;99.90;;;;;;5030028;28;20221;-36
2022/10/12 03:49:17;;;;;;;7.57;4.70;;;6.60;99.90;;;;;;5028531;28;20289;-36
2022/10/12 03:51:43;;;;;;;4.33;3.90;;;6.70;99.90;;;;;;5029451;28;20210;-36
2022/10/12 03:54:09;;;;;;;6.83;4.57;;;6.60;99.90;;;;;;5028966;28;20194;-36
2022/10/12 03:56:34;;;;;;;6.70;4.10;;;6.70;99.90;;;;;;5027785;28;20680;-36
2022/10/12 03:59:00;;;;;;;4.30;3.90;;;6.60;99.90;;;;;;5029062;28;20190;-36
2022/10/12 04:01:26;;;;;;;4.37;3.80;;;6.60;99.90;;;;;;5028529;28;20688;-36
2022/10/12 04:03:51;;;;;;;7.67;4.20;;;6.50;99.90;;;;;;5028854;28;20327;-36
2022/10/12 04:06:17;;;;;;;5.70;4.60;;;6.60;99.90;;;;;;5029304;28;20225;-36
2022/10/12 04:08:43;;;;;;;5.17;4.20;;;6.60;99.90;;;;;;5029308;28;20194;-36
2022/10/12 04:11:09;;;;;;;5.10;4.60;;;6.60;99.90;;;;;;5029235;28;20201;-35
2022/10/12 04:13:34;;;;;;;7.60;4.30;;;6.50;99.90;;;;;;5028681;28;20193;-35
2022/10/12 04:16:02;;;;;;;5.83;4.00;;;6.60;99.90;;;;;;5029357;28;20696;-36
2022/10/12 04:18:27;;;;;;;5.23;4.63;;;6.70;99.90;;;;;;5029037;28;20195;-35
2022/10/12 04:20:53;;;;;;;5.30;4.70;;;6.40;99.90;;;;;;5029785;28;20848;-35
2022/10/12 04:23:19;;;;;;;5.67;4.70;;;6.20;99.90;;;;;;5028329;28;20218;-36
2022/10/12 04:25:45;;;;;;;5.43;4.30;;;6.20;99.90;;;;;;5028843;28;20482;-36
2022/10/12 04:28:11;;;;;;;7.27;5.27;;;6.00;99.90;;;;;;5028788;28;20269;-36
2022/10/12 04:30:37;;;;;;;6.60;4.83;;;6.10;99.90;;;;;;5029024;28;20451;-36
2022/10/12 04:33:03;;;;;;;7.37;5.20;;;6.10;99.90;;;;;;5028350;28;20445;-35
2022/10/12 04:35:29;;;;;;;6.87;5.57;;;6.30;99.90;;;;;;5029045;28;20491;-35
2022/10/12 04:37:55;;;;;;;6.57;5.53;;;6.30;99.90;;;;;;5028600;28;20840;-36
2022/10/12 04:40:21;;;;;;;7.30;5.30;;;6.50;99.90;;;;;;5027839;28;20472;-35
2022/10/12 04:42:46;;;;;;;7.40;5.90;;;6.50;99.90;;;;;;5023445;28;20651;-36
2022/10/12 04:45:12;;;;;;;7.13;5.17;;;6.60;99.90;;;;;;5020912;28;20188;-36
2022/10/12 04:47:38;;;;;;;8.77;5.50;;;6.50;99.90;;;;;;5028588;28;20419;-36
2022/10/12 04:50:04;;;;;;;7.63;4.60;;;6.50;99.90;;;;;;5027439;28;20205;-36
2022/10/12 04:52:30;;;;;;;6.63;5.53;;;6.40;99.90;;;;;;5024948;28;20190;-36
2022/10/12 04:54:55;;;;;;;8.37;5.10;;;6.60;99.90;;;;;;5026380;28;20459;-35
2022/10/12 04:57:21;;;;;;;7.60;4.90;;;6.50;99.90;;;;;;5028337;28;20201;-36
2022/10/12 04:59:46;;;;;;;6.00;5.27;;;6.50;99.90;;;;;;5028333;28;20190;-36
2022/10/12 05:02:12;;;;;;;5.43;4.20;;;6.50;99.90;;;;;;5028507;28;20228;-36
2022/10/12 05:04:38;;;;;;;6.70;5.43;;;6.70;99.90;;;;;;5027129;28;20202;-36
2022/10/12 05:07:03;;;;;;;6.73;5.33;;;6.90;99.90;;;;;;5028230;28;20195;-36
2022/10/12 05:09:29;;;;;;;7.60;5.53;;;6.80;99.90;;;;;;5041648;28;20197;-36
2022/10/12 05:11:55;;;;;;;11.37;5.07;;;6.80;99.90;;;;;;5028076;28;20194;-36
2022/10/12 05:14:20;;;;;;;8.10;4.87;;;6.60;99.90;;;;;;5027610;28;20201;-35
2022/10/12 05:16:46;;;;;;;8.37;5.37;;;6.70;99.90;;;;;;5028405;28;20646;-35
2022/10/12 05:19:11;;;;;;;10.10;6.10;;;6.60;99.90;;;;;;5027919;28;20220;-35
2022/10/12 05:21:39;;;;;;;6.17;5.40;;;6.70;99.90;;;;;;5028409;28;20748;-35
2022/10/12 05:24:05;;;;;;;6.57;4.67;;;6.70;99.90;;;;;;5026026;28;20190;-35
2022/10/12 05:26:31;;;;;;;7.60;4.90;;;6.60;99.90;;;;;;5027104;28;20440;-36
2022/10/12 05:28:57;;;;;;;7.10;5.30;;;6.70;99.90;;;;;;5025236;28;20429;-35
2022/10/12 05:31:22;;;;;;;7.10;5.00;;;6.80;99.90;;;;;;5026705;28;20193;-35
2022/10/12 05:33:48;;;;;;;7.57;4.73;;;6.50;99.90;;;;;;5026976;28;20526;-36
2022/10/12 05:36:14;;;;;;;6.50;4.70;;;6.70;99.90;;;;;;5026996;28;20190;-36
2022/10/12 05:38:39;;;;;;;6.47;4.40;;;6.50;99.90;;;;;;5027179;28;20174;-36
2022/10/12 05:41:05;;;;;;;7.67;4.30;;;6.50;99.90;;;;;;5027869;28;20565;-35
2022/10/12 05:43:30;;;;;;;7.20;5.17;;;6.60;99.90;;;;;;5032764;28;20541;-36
2022/10/12 05:45:56;;;;;;;6.47;5.17;;;6.40;99.90;;;;;;5023880;28;20259;-35
2022/10/12 05:48:22;;;;;;;6.60;4.60;;;6.40;99.90;;;;;;5024681;28;20183;-36
2022/10/12 05:50:50;;;;;;;4.00;3.60;;;6.50;99.90;;;;;;5025037;28;20186;-36
2022/10/12 05:53:16;;;;;;;7.07;4.70;;;6.30;99.90;;;;;;5026244;28;20198;-36
2022/10/12 05:55:54;;;;;;;7.67;4.00;;;6.40;99.90;;;;;;5023524;28;20804;-36
2022/10/12 05:58:21;;;;;;;6.20;4.07;;;6.30;99.90;;;;;;5026007;28;20344;-36
2022/10/12 06:00:47;;;;;;;7.97;5.13;;;6.30;99.90;;;;;;5024728;28;20445;-35
2022/10/12 06:03:12;;;;;;;7.77;4.80;;;6.40;99.90;;;;;;5028737;28;20479;-35
2022/10/12 06:05:38;;;;;;;8.00;4.77;;;6.40;99.90;;;;;;5022136;28;20684;-36
2022/10/12 06:08:04;;;;;;;9.10;4.37;;;6.20;99.90;;;;;;5022893;28;20206;-36
2022/10/12 06:10:29;;;;;;;13.47;4.80;;;6.20;99.90;;;;;;5026661;28;20441;-36
2022/10/12 06:12:55;;;;;;;8.80;5.43;;;6.30;99.90;;;;;;5027599;28;20194;-35
2022/10/12 06:15:21;;;;;;;10.13;5.00;;;6.20;99.90;;;;;;5026253;28;20569;-35
2022/10/12 06:17:46;;;;;;;6.50;4.20;;;6.20;99.90;;;;;;5028458;28;20272;-35
2022/10/12 06:20:12;;;;;;;6.70;4.50;;;6.40;99.90;;;;;;5026444;28;20332;-36
2022/10/12 06:22:38;;;;;;;9.30;4.43;;;6.10;99.90;;;;;;5028320;28;20214;-35
2022/10/12 06:25:04;;;;;;;7.23;4.70;;;6.30;99.90;;;;;;5033384;28;20677;-35
2022/10/12 06:27:29;;;;;;;5.43;4.87;;;6.30;99.90;;;;;;5031114;28;20175;-36
2022/10/12 06:29:55;;;;;;;8.77;5.30;;;6.20;99.90;;;;;;5031424;28;20788;-35
2022/10/12 06:32:21;;;;;;;9.63;5.13;;;6.10;99.90;;;;;;5029290;28;20575;-36
2022/10/12 06:34:46;;;;;;;9.70;5.50;;;6.30;99.90;;;;;;5031743;28;20217;-35
2022/10/12 06:37:12;;;;;;;6.30;5.17;;;6.20;99.90;;;;;;5031693;28;20678;-35
2022/10/12 06:39:37;;;;;;;6.50;4.83;;;6.20;99.90;;;;;;5031920;28;20190;-35
2022/10/12 06:42:03;;;;;;;7.73;4.47;;;6.20;99.90;;;;;;5030638;28;20256;-35
2022/10/12 06:44:29;;;;;;;9.27;5.00;;;6.20;99.90;;;;;;5031982;28;20194;-35
2022/10/12 06:46:54;;;;;;;6.00;5.13;;;6.10;99.90;;;;;;5029509;28;20191;-36
2022/10/12 06:49:20;;;;;;;5.73;4.70;;;6.20;99.90;;;;;;5030726;28;20194;-36
2022/10/12 06:51:46;;;;;;;5.93;4.40;;;6.50;99.90;;;;;;5040957;28;20263;-35
2022/10/12 06:54:11;;;;;;;7.50;4.30;;;6.30;99.90;;;;;;5024839;28;20199;-35
2022/10/12 06:56:38;;;;;;;6.00;4.60;;;6.50;99.90;;;;;;5021374;28;20735;-35
2022/10/12 06:59:04;;;;;;;9.40;5.23;;;6.40;99.90;;;;;;5030614;28;20218;-35
2022/10/12 07:01:30;;;;;;;6.60;4.90;;;6.60;99.90;;;;;;5030248;28;20476;-35
2022/10/12 07:03:55;;;;;;;6.30;4.80;;;6.70;99.90;;;;;;5029900;28;20421;-36
2022/10/12 07:06:21;;;;;;;6.37;4.83;;;6.90;99.90;;;;;;5030069;28;20190;-35
2022/10/12 07:08:49;;;;;;;6.57;5.30;;;7.10;99.90;;;;;;5030682;28;20229;-35
2022/10/12 07:11:14;;;;;;;11.70;5.20;;;7.30;99.90;;;;;;5030256;28;20194;-36
2022/10/12 07:13:40;;;;;;;11.83;5.20;;;7.40;99.90;;;;;;5029730;28;20424;-35
2022/10/12 07:16:06;;;;;;;7.20;5.13;;;7.70;99.90;;;;;;5030444;28;20479;-35
2022/10/12 07:18:32;;;;;;;8.37;4.83;;;8.00;99.90;;;;;;5030509;28;20197;-35
2022/10/12 07:20:58;;;;;;;7.57;5.90;;;8.20;99.90;;;;;;5030865;28;20524;-35
2022/10/12 07:23:25;;;;;;;8.27;4.90;;;8.60;99.90;;;;;;5047239;28;20356;-35
2022/10/12 07:25:51;;;;;;;6.73;5.20;;;8.70;99.90;;;;;;5050138;28;20520;-35
2022/10/12 07:28:18;;;;;;;6.70;5.60;;;8.90;99.90;;;;;;5041498;28;20512;-36
2022/10/12 07:30:44;;;;;;;10.50;5.00;;;9.00;99.90;;;;;;5030176;28;20939;-35
2022/10/12 07:33:11;;;;;;;7.57;4.97;;;9.10;99.90;;;;;;5029146;28;20516;-37
2022/10/12 07:35:36;;;;;;;8.93;5.40;;;9.20;99.90;;;;;;5029538;28;20745;-36
2022/10/12 07:38:03;;;;;;;8.63;6.30;;;9.30;99.90;;;;;;5028974;28;20437;-36
2022/10/12 07:40:29;;;;;;;12.13;6.70;;;9.50;99.90;;;;;;5029569;28;20216;-36
2022/10/12 07:42:55;;;;;;;12.73;7.00;;;9.70;99.90;;;;;;5027498;28;20550;-36
2022/10/12 07:45:21;;;;;;;13.93;8.23;;;10.00;99.90;;;;;;5029751;28;20430;-35
2022/10/12 07:47:47;;;;;;;12.63;7.27;;;10.30;99.90;;;;;;5029566;28;20187;-36
2022/10/12 07:50:13;;;;;;;10.03;6.43;;;10.60;99.90;;;;;;5029297;28;20425;-36
2022/10/12 07:52:39;;;;;;;14.87;7.00;;;10.90;99.90;;;;;;5029070;28;20220;-37
2022/10/12 07:55:06;;;;;;;11.83;5.33;;;11.10;99.90;;;;;;5027875;28;20802;-36
2022/10/12 07:57:32;;;;;;;11.27;6.00;;;11.40;99.90;;;;;;5028226;28;20425;-36
2022/10/12 07:59:58;;;;;;;6.93;4.10;;;11.70;99.90;;;;;;5029344;28;20962;-36
2022/10/12 08:02:23;;;;;;;7.63;3.80;;;11.90;99.90;;;;;;5029038;28;20873;-36
2022/10/12 08:04:49;;;;;;;5.17;3.47;;;12.10;99.90;;;;;;5028749;28;20677;-36
2022/10/12 08:07:15;;;;;;;4.50;3.77;;;12.30;99.90;;;;;;5029548;28;20286;-36
2022/10/12 08:09:40;;;;;;;9.13;4.03;;;12.40;99.90;;;;;;5029437;28;20190;-36
2022/10/12 08:12:08;;;;;;;6.40;3.97;;;12.50;99.90;;;;;;5029303;28;20190;-36
2022/10/12 08:14:34;;;;;;;6.63;3.70;;;12.60;99.90;;;;;;5028525;28;20183;-36
2022/10/12 08:16:59;;;;;;;8.87;3.90;;;12.80;99.90;;;;;;5029527;28;20426;-36
2022/10/12 08:19:25;;;;;;;5.77;3.70;;;13.00;99.90;;;;;;5028124;28;20307;-36
2022/10/12 08:21:51;;;;;;;5.67;3.80;;;13.20;99.90;;;;;;5030309;28;20654;-36
2022/10/12 08:24:17;;;;;;;6.80;4.23;;;13.50;99.90;;;;;;5028499;28;20379;-36
2022/10/12 08:26:42;;;;;;;5.83;4.13;;;13.70;99.90;;;;;;5029223;28;20431;-36
2022/10/12 08:29:09;;;;;;;11.70;3.83;;;13.80;99.90;;;;;;5029368;28;20201;-36
2022/10/12 08:31:35;;;;;;;5.73;3.67;;;13.70;99.90;;;;;;5028787;28;20275;-36
2022/10/12 08:34:01;;;;;;;6.00;3.80;;;13.70;99.90;;;;;;5028597;28;20448;-36
2022/10/12 08:36:27;;;;;;;8.10;3.90;;;13.80;99.90;;;;;;5028738;28;20479;-36
2022/10/12 08:38:54;;;;;;;4.77;3.90;;;13.90;99.90;;;;;;5028963;28;20204;-37
2022/10/12 08:41:32;;;;;;;5.70;4.03;;;14.00;99.90;;;;;;5028505;28;20190;-36
2022/10/12 08:44:35;;;;;;;6.80;4.00;;;14.20;99.90;;;;;;5028084;28;20507;-36
2022/10/12 08:47:12;;;;;;;8.33;4.13;;;14.20;99.90;;;;;;5028000;28;20490;-36
2022/10/12 08:49:39;;;;;;;6.50;4.30;;;14.10;99.90;;;;;;5028602;28;20507;-36
2022/10/12 08:52:12;;;;;;;6.93;3.37;;;14.10;99.90;;;;;;5028375;28;20425;-36
2022/10/12 08:54:43;;;;;;;5.23;3.53;;;14.00;99.90;;;;;;5026255;28;20508;-36
2022/10/12 08:57:17;;;;;;;6.07;4.03;;;14.00;99.90;;;;;;5028780;28;20777;-36
2022/10/12 08:59:44;;;;;;;5.90;3.90;;;14.10;99.90;;;;;;5028718;28;20425;-37
2022/10/12 09:02:42;;;;;;;10.63;4.00;;;14.20;99.90;;;;;;5028345;28;20515;-36
2022/10/12 09:05:12;;;;;;;7.60;3.70;;;14.40;99.90;;;;;;5028000;28;20440;-36
2022/10/12 09:08:01;;;;;;;8.20;3.93;;;14.50;99.90;;;;;;5028409;28;20425;-36
2022/10/12 09:10:44;;;;;;;5.77;3.47;;;14.60;99.90;;;;;;5028311;28;20831;-37
2022/10/12 09:13:25;;;;;;;6.40;3.00;;;14.70;99.90;;;;;;5027545;28;20827;-36
2022/10/12 09:15:59;;;;;;;8.63;3.70;;;14.80;99.90;;;;;;5028631;28;20599;-36
2022/10/12 09:18:41;;;;;;;4.57;3.97;;;14.80;99.90;;;;;;5028405;28;20795;-36
2022/10/12 09:21:15;;;;;;;7.67;2.97;;;14.60;99.90;;;;;;5029254;28;20527;-37
2022/10/12 09:23:43;;;;;;;7.83;3.80;;;14.60;99.90;;;;;;5027724;28;20944;-36
2022/10/12 09:26:34;;;;;;;6.40;3.03;;;14.60;99.90;;;;;;5028309;28;20421;-36
2022/10/12 09:29:01;;;;;;;6.03;2.67;;;14.40;99.90;;;;;;5028167;28;20425;-37
2022/10/12 09:31:42;;;;;;;6.33;3.13;;;14.30;99.90;;;;;;5028297;28;20475;-36
2022/10/12 09:34:09;;;;;;;8.27;2.83;;;14.30;99.90;;;;;;5027260;28;20785;-36
2022/10/12 09:36:38;;;;;;;5.20;2.80;;;14.40;99.90;;;;;;5026688;28;21001;-36
2022/10/12 09:39:09;;;;;;;6.40;3.23;;;14.60;99.90;;;;;;5028471;28;20420;-36
2022/10/12 09:41:39;;;;;;;6.53;2.90;;;14.80;99.90;;;;;;5026555;28;20457;-37
2022/10/12 09:44:09;;;;;;;6.57;3.00;;;14.90;99.90;;;;;;5027509;28;20500;-36
2022/10/12 09:46:45;;;;;;;5.50;3.10;;;15.10;99.90;;;;;;5028191;28;20776;-36
2022/10/12 09:49:10;;;;;;;5.20;2.70;;;15.00;99.90;;;;;;5028016;28;20420;-36
2022/10/12 09:51:36;;;;;;;4.10;2.67;;;15.20;99.90;;;;;;5027876;28;20432;-36
2022/10/12 09:54:04;;;;;;;7.77;3.00;;;15.30;99.90;;;;;;5027386;28;20183;-36
2022/10/12 09:56:37;;;;;;;4.87;2.97;;;15.40;99.90;;;;;;5026670;28;20425;-36
2022/10/12 09:59:21;;;;;;;4.20;2.43;;;15.60;99.90;;;;;;5031668;28;20532;-36
2022/10/12 10:02:15;;;;;;;6.60;2.67;;;15.60;99.90;;;;;;5031490;28;20534;-36
2022/10/12 10:04:42;;;;;;;4.47;2.40;;;15.60;99.90;;;;;;5031275;28;20845;-36
2022/10/12 10:07:28;;;;;;;6.90;2.70;;;15.70;99.90;;;;;;5031518;28;20437;-37
2022/10/12 10:10:16;;;;;;;6.83;2.70;;;15.70;99.90;;;;;;5031497;28;20464;-36
2022/10/12 10:13:01;;;;;;;4.97;2.57;;;15.70;99.90;;;;;;5031072;28;20671;-36
2022/10/12 10:15:39;;;;;;;5.83;2.47;;;15.70;99.90;;;;;;5031509;28;20762;-36
2022/10/12 10:18:17;;;;;;;9.63;2.67;;;15.80;99.90;;;;;;5030906;28;20428;-36
2022/10/12 10:20:54;;;;;;;6.70;2.20;;;15.80;99.90;;;;;;5032470;28;20536;-36
2022/10/12 10:23:34;;;;;;;6.40;2.47;;;16.00;99.90;;;;;;5030500;28;20487;-37
2022/10/12 10:26:09;;;;;;;6.83;2.57;;;15.80;99.90;;;;;;5031350;28;20793;-36
2022/10/12 10:28:38;;;;;;;5.40;2.10;;;15.90;99.90;;;;;;5030881;28;20417;-36
2022/10/12 10:31:23;;;;;;;7.50;2.70;;;16.00;99.90;;;;;;5031135;28;20425;-36
2022/10/12 10:34:09;;;;;;;7.20;2.40;;;16.00;99.90;;;;;;5030489;28;20429;-36
2022/10/12 10:36:39;;;;;;;3.83;2.03;;;16.10;99.90;;;;;;5030967;28;20425;-37
2022/10/12 10:39:13;;;;;;;5.57;2.30;;;16.20;99.90;;;;;;5030861;28;20436;-36
2022/10/12 10:41:41;;;;;;;6.10;2.70;;;16.20;99.80;;;;;;5030975;28;20869;-36
2022/10/12 10:44:27;;;;;;;4.60;2.00;;;16.20;99.90;;;;;;5030166;28;20432;-36
2022/10/12 10:47:11;;;;;;;5.67;2.70;;;16.20;99.40;;;;;;5030784;28;20958;-36
2022/10/12 10:49:47;;;;;;;4.30;2.20;;;16.20;99.20;;;;;;5030602;28;20417;-36
2022/10/12 10:52:22;;;;;;;6.43;2.10;;;16.00;99.50;;;;;;5030666;28;20433;-36
2022/10/12 10:54:48;;;;;;;4.27;1.93;;;16.00;99.80;;;;;;5029344;28;20424;-36
2022/10/12 10:57:20;;;;;;;5.37;2.40;;;15.90;99.70;;;;;;5030754;28;20433;-37
2022/10/12 10:59:55;;;;;;;5.87;3.20;;;15.90;99.90;;;;;;5030310;28;20414;-36
2022/10/12 11:02:55;;;;;;;5.33;2.63;;;15.90;99.90;;;;;;5030271;28;20464;-36
2022/10/12 11:05:28;;;;;;;3.50;2.27;;;15.90;99.90;;;;;;5030376;28;20476;-37
2022/10/12 11:08:28;;;;;;;2.57;1.90;;;15.90;99.90;;;;;;5030306;28;20908;-36
2022/10/12 11:11:07;;;;;;;8.17;2.00;;;16.00;99.90;;;;;;5031977;28;20414;-36
2022/10/12 11:14:01;;;;;;;5.10;2.13;;;16.10;99.90;;;;;;5028379;28;20435;-36
2022/10/12 11:16:43;;;;;;;3.27;1.50;;;16.20;99.90;;;;;;5029949;28;20420;-36
2022/10/12 11:19:22;;;;;;;4.40;1.80;;;16.20;99.90;;;;;;5028302;28;20417;-37
2022/10/12 11:22:24;;;;;;;7.17;2.27;;;16.20;99.90;;;;;;5028840;28;20445;-36
2022/10/12 11:25:01;;;;;;;3.63;2.13;;;16.50;99.90;;;;;;5029289;28;20970;-36
2022/10/12 11:27:36;;;;;;;5.70;1.90;;;16.60;99.60;;;;;;5030180;28;20413;-36
2022/10/12 11:30:11;;;;;;;3.23;1.57;;;16.80;98.10;;;;;;5030179;28;20416;-36
2022/10/12 11:32:45;;;;;;;6.00;2.13;;;17.00;98.50;;;;;;5029602;28;20417;-36
2022/10/12 11:35:27;;;;;;;5.37;1.50;;;17.30;98.90;;;;;;5029875;28;20483;-37
2022/10/12 11:37:59;;;;;;;3.37;1.80;;;17.30;97.30;;;;;;5029952;28;20409;-36
2022/10/12 11:40:35;;;;;;;3.93;1.67;;;17.40;98.20;;;;;;5030207;28;20694;-36
2022/10/12 11:43:06;;;;;;;2.87;1.80;;;17.50;98.10;;;;;;5028954;28;20460;-37
2022/10/12 11:45:45;;;;;;;5.10;1.90;;;17.60;97.80;;;;;;5029497;28;20519;-36
2022/10/12 11:48:17;;;;;;;4.60;2.10;;;17.60;97.70;;;;;;5009653;28;20425;-37
2022/10/12 11:50:45;;;;;;;4.30;1.93;;;17.70;97.40;;;;;;5023577;28;20440;-36
2022/10/12 11:53:46;;;;;;;5.03;2.30;;;17.70;97.30;;;;;;5028970;28;20417;-37
2022/10/12 11:56:24;;;;;;;4.43;2.10;;;17.80;97.50;;;;;;5028819;28;20470;-37
2022/10/12 11:58:57;;;;;;;4.03;2.40;;;17.90;97.50;;;;;;5040523;28;20799;-38
2022/10/12 12:01:28;;;;;;;5.97;2.60;;;17.90;97.70;;;;;;5047524;28;20432;-36
2022/10/12 12:03:53;;;;;;;3.97;2.70;;;17.90;97.70;;;;;;5028615;28;20428;-37
2022/10/12 12:06:28;;;;;;;6.63;2.70;;;17.80;97.90;;;;;;5029623;28;20421;-36
2022/10/12 12:08:54;;;;;;;8.07;3.30;;;17.70;98.10;;;;;;5029311;28;20553;-36
2022/10/12 12:11:23;;;;;;;4.87;2.70;;;17.50;98.30;;;;;;5029362;28;20429;-37
2022/10/12 12:13:49;;;;;;;6.70;3.30;;;17.40;98.90;;;;;;5028363;28;20205;-37
2022/10/12 12:16:15;;;;;;;5.00;2.40;;;17.30;99.00;;;;;;5029691;28;20433;-36
2022/10/12 12:19:08;;;;;;;4.83;2.60;;;17.20;99.40;;;;;;5028861;28;20771;-38
2022/10/12 12:22:11;;;;;;;4.93;2.50;;;17.20;99.90;;;;;;5028693;28;20428;-37
2022/10/12 12:24:38;;;;;;;5.30;3.07;;;17.30;99.70;;;;;;5028281;28;20419;-36
2022/10/12 12:27:42;;;;;;;5.57;2.87;;;17.20;99.50;;;;;;5028826;28;20409;-36
2022/10/12 12:30:16;;;;;;;4.77;2.50;;;17.30;99.20;;;;;;5028216;28;20425;-37
2022/10/12 12:32:59;;;;;;;3.60;2.00;;;17.30;99.70;;;;;;5028180;28;21123;-36
2022/10/12 12:35:53;;;;;;;6.17;2.40;;;17.40;99.80;;;;;;5028528;28;20435;-37
2022/10/12 12:38:34;;;;;;;4.30;2.50;;;17.50;99.90;;;;;;5028284;28;20432;-37
2022/10/12 12:41:18;;;;;;;5.23;2.53;;;17.50;98.90;;;;;;5028717;28;20425;-37
2022/10/12 12:43:44;;;;;;;6.80;2.70;;;17.40;98.90;;;;;;5028025;28;20464;-36
2022/10/12 12:46:14;;;;;;;6.53;2.30;;;17.40;99.50;;;;;;5028671;28;20502;-36
2022/10/12 12:48:42;;;;;;;4.53;2.33;;;17.40;99.00;;;;;;5029013;28;20225;-36
2022/10/12 12:51:09;;;;;;;6.50;2.63;;;17.40;98.80;;;;;;5028871;28;20504;-37
2022/10/12 12:53:39;;;;;;;4.03;2.67;;;17.30;99.30;;;;;;5027996;28;20429;-37
2022/10/12 12:56:14;;;;;;;4.03;2.00;;;17.30;99.30;;;;;;5014432;28;20425;-36
2022/10/12 12:58:50;;;;;;;5.47;3.00;;;17.30;99.90;;;;;;5028916;28;20468;-36
2022/10/12 13:01:54;;;;;;;6.53;2.67;;;17.30;99.90;;;;;;5028408;28;20726;-36
2022/10/12 13:04:46;;;;;;;5.10;2.50;;;17.30;99.70;;;;;;5015983;28;20449;-37
2022/10/12 13:07:30;;;;;;;5.30;2.67;;;17.20;99.50;;;;;;5020990;28;20427;-36
2022/10/12 13:10:18;;;;;;;5.63;2.30;;;17.20;99.70;;;;;;5028292;28;20429;-37
2022/10/12 13:13:21;;;;;;;5.57;2.70;;;17.10;99.60;;;;;;5027588;28;20452;-36